sensor_id;sensor_type;location;lat;lon;timestamp;P1;durP1;ratioP1;P2;durP2;ratioP2
27857;SDS011;16852;51.446;6.528;2023-07-29T10:43:03;1.10;;;0.82;;
27857;SDS011;16852;51.446;6.528;2023-07-29T10:45:19;0.95;;;0.80;;
27857;SDS011;16852;51.446;6.528;2023-07-29T10:47:22;2.08;;;1.10;;
27857;SDS011;16852;51.446;6.528;2023-07-29T10:49:29;0.73;;;0.73;;
27857;SDS011;16852;51.446;6.528;2023-07-29T10:51:35;1.00;;;0.77;;
27857;SDS011;16852;51.446;6.528;2023-07-29T10:53:37;0.85;;;0.80;;
27857;SDS011;16852;51.446;6.528;2023-07-29T10:55:37;0.95;;;0.65;;
27857;SDS011;16852;51.446;6.528;2023-07-29T10:57:38;0.65;;;0.65;;
27857;SDS011;16852;51.446;6.528;2023-07-29T10:59:55;2.00;;;0.98;;
27857;SDS011;16852;51.446;6.528;2023-07-29T11:01:57;0.80;;;0.80;;
27857;SDS011;16852;51.446;6.528;2023-07-29T11:04:21;1.15;;;1.05;;
27857;SDS011;16852;51.446;6.528;2023-07-29T11:06:24;1.02;;;0.90;;
27857;SDS011;16852;51.446;6.528;2023-07-29T11:08:28;2.17;;;1.10;;
27857;SDS011;16852;51.446;6.528;2023-07-29T11:10:30;1.05;;;0.70;;
27857;SDS011;16852;51.446;6.528;2023-07-29T11:12:50;1.40;;;0.90;;
27857;SDS011;16852;51.446;6.528;2023-07-29T11:14:52;1.80;;;1.08;;
27857;SDS011;16852;51.446;6.528;2023-07-29T11:16:52;1.35;;;0.93;;
27857;SDS011;16852;51.446;6.528;2023-07-29T11:18:54;1.42;;;0.90;;
27857;SDS011;16852;51.446;6.528;2023-07-29T11:20:58;1.85;;;0.93;;
27857;SDS011;16852;51.446;6.528;2023-07-29T11:23:02;0.85;;;0.77;;
27857;SDS011;16852;51.446;6.528;2023-07-29T11:25:04;1.35;;;0.95;;
27857;SDS011;16852;51.446;6.528;2023-07-29T11:27:10;1.85;;;1.13;;
27857;SDS011;16852;51.446;6.528;2023-07-29T11:29:11;1.20;;;1.10;;
27857;SDS011;16852;51.446;6.528;2023-07-29T11:31:12;4.00;;;1.20;;
27857;SDS011;16852;51.446;6.528;2023-07-29T11:33:14;1.23;;;0.98;;
27857;SDS011;16852;51.446;6.528;2023-07-29T11:35:20;3.08;;;1.00;;
27857;SDS011;16852;51.446;6.528;2023-07-29T11:37:20;1.70;;;1.33;;
27857;SDS011;16852;51.446;6.528;2023-07-29T11:39:21;2.22;;;1.20;;
27857;SDS011;16852;51.446;6.528;2023-07-29T11:41:22;4.65;;;1.10;;
27857;SDS011;16852;51.446;6.528;2023-07-29T11:43:23;1.30;;;1.20;;
27857;SDS011;16852;51.446;6.528;2023-07-29T11:45:24;1.00;;;0.90;;
27857;SDS011;16852;51.446;6.528;2023-07-29T11:47:25;1.35;;;1.08;;
27857;SDS011;16852;51.446;6.528;2023-07-29T11:49:26;1.15;;;0.90;;
27857;SDS011;16852;51.446;6.528;2023-07-29T11:51:26;1.30;;;1.15;;
27857;SDS011;16852;51.446;6.528;2023-07-29T11:53:28;1.73;;;0.90;;
27857;SDS011;16852;51.446;6.528;2023-07-29T11:55:30;2.25;;;1.20;;
27857;SDS011;16852;51.446;6.528;2023-07-29T11:57:33;1.30;;;0.90;;
27857;SDS011;16852;51.446;6.528;2023-07-29T11:59:37;1.05;;;0.95;;
27857;SDS011;16852;51.446;6.528;2023-07-29T12:01:38;2.05;;;1.20;;
27857;SDS011;16852;51.446;6.528;2023-07-29T12:03:39;2.80;;;1.00;;
27857;SDS011;16852;51.446;6.528;2023-07-29T12:05:40;2.15;;;1.33;;
27857;SDS011;16852;51.446;6.528;2023-07-29T12:07:42;1.33;;;1.17;;
27857;SDS011;16852;51.446;6.528;2023-07-29T12:09:45;1.50;;;1.05;;
27857;SDS011;16852;51.446;6.528;2023-07-29T12:11:46;1.65;;;1.00;;
27857;SDS011;16852;51.446;6.528;2023-07-29T12:13:47;1.65;;;1.00;;
27857;SDS011;16852;51.446;6.528;2023-07-29T12:15:48;1.75;;;1.33;;
27857;SDS011;16852;51.446;6.528;2023-07-29T12:17:48;1.05;;;0.90;;
27857;SDS011;16852;51.446;6.528;2023-07-29T12:19:53;1.63;;;1.13;;
27857;SDS011;16852;51.446;6.528;2023-07-29T12:21:55;1.38;;;0.93;;
27857;SDS011;16852;51.446;6.528;2023-07-29T12:23:56;2.83;;;0.98;;
27857;SDS011;16852;51.446;6.528;2023-07-29T12:25:57;1.58;;;1.15;;
27857;SDS011;16852;51.446;6.528;2023-07-29T12:28:02;2.80;;;1.30;;
27857;SDS011;16852;51.446;6.528;2023-07-29T12:30:04;1.75;;;1.08;;
27857;SDS011;16852;51.446;6.528;2023-07-29T12:32:05;1.50;;;1.40;;
27857;SDS011;16852;51.446;6.528;2023-07-29T12:34:06;1.33;;;1.00;;
27857;SDS011;16852;51.446;6.528;2023-07-29T12:36:07;2.47;;;1.20;;
27857;SDS011;16852;51.446;6.528;2023-07-29T12:38:08;1.33;;;1.17;;
27857;SDS011;16852;51.446;6.528;2023-07-29T12:40:24;2.15;;;1.40;;
27857;SDS011;16852;51.446;6.528;2023-07-29T12:42:25;0.93;;;0.90;;
27857;SDS011;16852;51.446;6.528;2023-07-29T12:44:33;1.92;;;1.48;;
27857;SDS011;16852;51.446;6.528;2023-07-29T12:46:35;2.05;;;1.27;;
27857;SDS011;16852;51.446;6.528;2023-07-29T12:48:35;1.63;;;1.40;;
27857;SDS011;16852;51.446;6.528;2023-07-29T12:50:36;1.33;;;1.10;;
27857;SDS011;16852;51.446;6.528;2023-07-29T12:52:38;1.42;;;1.08;;
27857;SDS011;16852;51.446;6.528;2023-07-29T12:54:39;0.85;;;0.77;;
27857;SDS011;16852;51.446;6.528;2023-07-29T12:56:40;2.85;;;1.20;;
27857;SDS011;16852;51.446;6.528;2023-07-29T12:58:40;1.00;;;0.90;;
27857;SDS011;16852;51.446;6.528;2023-07-29T13:00:41;1.30;;;1.00;;
27857;SDS011;16852;51.446;6.528;2023-07-29T13:02:41;1.17;;;1.08;;
27857;SDS011;16852;51.446;6.528;2023-07-29T13:04:42;2.10;;;1.20;;
27857;SDS011;16852;51.446;6.528;2023-07-29T13:06:43;1.25;;;1.02;;
27857;SDS011;16852;51.446;6.528;2023-07-29T13:08:44;2.10;;;1.20;;
27857;SDS011;16852;51.446;6.528;2023-07-29T13:10:45;2.40;;;1.20;;
27857;SDS011;16852;51.446;6.528;2023-07-29T13:12:45;1.45;;;1.20;;
27857;SDS011;16852;51.446;6.528;2023-07-29T13:14:46;2.88;;;1.48;;
27857;SDS011;16852;51.446;6.528;2023-07-29T13:16:47;1.83;;;1.38;;
27857;SDS011;16852;51.446;6.528;2023-07-29T13:18:47;4.85;;;1.48;;
27857;SDS011;16852;51.446;6.528;2023-07-29T13:20:48;1.63;;;1.00;;
27857;SDS011;16852;51.446;6.528;2023-07-29T13:22:48;1.35;;;1.20;;
27857;SDS011;16852;51.446;6.528;2023-07-29T13:24:49;2.13;;;1.25;;
27857;SDS011;16852;51.446;6.528;2023-07-29T13:26:50;2.00;;;1.30;;
27857;SDS011;16852;51.446;6.528;2023-07-29T13:28:51;2.67;;;1.42;;
27857;SDS011;16852;51.446;6.528;2023-07-29T13:30:51;5.68;;;1.38;;
27857;SDS011;16852;51.446;6.528;2023-07-29T13:32:52;5.88;;;2.33;;
27857;SDS011;16852;51.446;6.528;2023-07-29T13:34:52;4.28;;;1.65;;
27857;SDS011;16852;51.446;6.528;2023-07-29T13:36:53;4.07;;;1.92;;
27857;SDS011;16852;51.446;6.528;2023-07-29T13:38:54;3.45;;;1.75;;
27857;SDS011;16852;51.446;6.528;2023-07-29T13:40:54;4.75;;;1.90;;
27857;SDS011;16852;51.446;6.528;2023-07-29T13:42:55;4.78;;;2.13;;
27857;SDS011;16852;51.446;6.528;2023-07-29T13:44:55;8.40;;;2.38;;
27857;SDS011;16852;51.446;6.528;2023-07-29T13:46:56;4.50;;;2.10;;
27857;SDS011;16852;51.446;6.528;2023-07-29T13:48:57;4.15;;;2.20;;
27857;SDS011;16852;51.446;6.528;2023-07-29T13:50:57;4.05;;;1.55;;
27857;SDS011;16852;51.446;6.528;2023-07-29T13:52:58;2.22;;;1.60;;
27857;SDS011;16852;51.446;6.528;2023-07-29T13:54:58;3.72;;;1.70;;
27857;SDS011;16852;51.446;6.528;2023-07-29T13:56:59;4.55;;;1.50;;
27857;SDS011;16852;51.446;6.528;2023-07-29T13:59:00;3.30;;;1.80;;
27857;SDS011;16852;51.446;6.528;2023-07-29T14:01:00;2.38;;;1.60;;
27857;SDS011;16852;51.446;6.528;2023-07-29T14:03:01;3.88;;;2.30;;
27857;SDS011;16852;51.446;6.528;2023-07-29T14:05:01;5.15;;;2.40;;
27857;SDS011;16852;51.446;6.528;2023-07-29T14:07:02;6.47;;;2.20;;
27857;SDS011;16852;51.446;6.528;2023-07-29T14:09:03;3.83;;;2.17;;
27857;SDS011;16852;51.446;6.528;2023-07-29T14:11:04;4.22;;;2.10;;
27857;SDS011;16852;51.446;6.528;2023-07-29T14:13:04;2.75;;;1.85;;
27857;SDS011;16852;51.446;6.528;2023-07-29T14:15:05;2.65;;;1.95;;
27857;SDS011;16852;51.446;6.528;2023-07-29T14:17:06;4.57;;;2.13;;
27857;SDS011;16852;51.446;6.528;2023-07-29T14:19:08;3.97;;;2.05;;
27857;SDS011;16852;51.446;6.528;2023-07-29T14:21:09;3.25;;;1.85;;
27857;SDS011;16852;51.446;6.528;2023-07-29T14:23:09;2.10;;;1.88;;
27857;SDS011;16852;51.446;6.528;2023-07-29T14:25:10;2.85;;;1.80;;
27857;SDS011;16852;51.446;6.528;2023-07-29T14:27:11;2.67;;;1.42;;
27857;SDS011;16852;51.446;6.528;2023-07-29T14:29:11;1.80;;;1.40;;
27857;SDS011;16852;51.446;6.528;2023-07-29T14:31:12;2.30;;;1.67;;
27857;SDS011;16852;51.446;6.528;2023-07-29T14:33:13;2.60;;;1.70;;
27857;SDS011;16852;51.446;6.528;2023-07-29T14:35:14;1.67;;;1.35;;
27857;SDS011;16852;51.446;6.528;2023-07-29T14:37:15;1.35;;;1.25;;
27857;SDS011;16852;51.446;6.528;2023-07-29T14:39:16;1.95;;;1.48;;
27857;SDS011;16852;51.446;6.528;2023-07-29T14:41:16;2.15;;;1.20;;
27857;SDS011;16852;51.446;6.528;2023-07-29T14:43:17;1.90;;;1.17;;
27857;SDS011;16852;51.446;6.528;2023-07-29T14:45:18;1.90;;;1.50;;
27857;SDS011;16852;51.446;6.528;2023-07-29T14:47:18;2.20;;;1.55;;
27857;SDS011;16852;51.446;6.528;2023-07-29T14:49:19;2.63;;;1.60;;
27857;SDS011;16852;51.446;6.528;2023-07-29T14:51:20;4.95;;;1.45;;
27857;SDS011;16852;51.446;6.528;2023-07-29T14:53:20;2.30;;;1.55;;
27857;SDS011;16852;51.446;6.528;2023-07-29T14:55:21;2.58;;;1.35;;
27857;SDS011;16852;51.446;6.528;2023-07-29T14:57:22;2.30;;;1.52;;
27857;SDS011;16852;51.446;6.528;2023-07-29T14:59:22;3.00;;;1.70;;
27857;SDS011;16852;51.446;6.528;2023-07-29T15:01:23;2.60;;;1.70;;
27857;SDS011;16852;51.446;6.528;2023-07-29T15:03:24;1.95;;;1.30;;
27857;SDS011;16852;51.446;6.528;2023-07-29T15:05:25;1.48;;;1.38;;
27857;SDS011;16852;51.446;6.528;2023-07-29T15:07:25;1.80;;;1.50;;
27857;SDS011;16852;51.446;6.528;2023-07-29T15:09:26;2.03;;;1.58;;
27857;SDS011;16852;51.446;6.528;2023-07-29T15:11:26;2.25;;;1.55;;
27857;SDS011;16852;51.446;6.528;2023-07-29T15:13:28;9.18;;;1.60;;
27857;SDS011;16852;51.446;6.528;2023-07-29T15:15:28;2.83;;;1.55;;
27857;SDS011;16852;51.446;6.528;2023-07-29T15:17:29;2.42;;;1.40;;
27857;SDS011;16852;51.446;6.528;2023-07-29T15:19:29;1.33;;;1.20;;
27857;SDS011;16852;51.446;6.528;2023-07-29T15:21:30;3.30;;;1.30;;
27857;SDS011;16852;51.446;6.528;2023-07-29T15:23:33;1.73;;;1.13;;
27857;SDS011;16852;51.446;6.528;2023-07-29T15:25:34;2.33;;;1.30;;
27857;SDS011;16852;51.446;6.528;2023-07-29T15:27:37;1.23;;;1.00;;
27857;SDS011;16852;51.446;6.528;2023-07-29T15:29:38;0.82;;;0.82;;
27857;SDS011;16852;51.446;6.528;2023-07-29T15:31:39;1.63;;;1.05;;
27857;SDS011;16852;51.446;6.528;2023-07-29T15:33:40;0.75;;;0.75;;
27857;SDS011;16852;51.446;6.528;2023-07-29T15:35:41;1.13;;;0.98;;
27857;SDS011;16852;51.446;6.528;2023-07-29T15:37:41;0.73;;;0.73;;
27857;SDS011;16852;51.446;6.528;2023-07-29T15:39:42;1.13;;;0.85;;
27857;SDS011;16852;51.446;6.528;2023-07-29T15:41:42;2.55;;;1.00;;
27857;SDS011;16852;51.446;6.528;2023-07-29T15:43:43;0.70;;;0.68;;
27857;SDS011;16852;51.446;6.528;2023-07-29T15:45:44;1.00;;;0.90;;
27857;SDS011;16852;51.446;6.528;2023-07-29T15:47:45;10.60;;;1.13;;
27857;SDS011;16852;51.446;6.528;2023-07-29T15:49:45;1.35;;;1.02;;
27857;SDS011;16852;51.446;6.528;2023-07-29T15:51:46;0.80;;;0.70;;
27857;SDS011;16852;51.446;6.528;2023-07-29T15:53:47;0.85;;;0.80;;
27857;SDS011;16852;51.446;6.528;2023-07-29T15:55:49;1.88;;;0.70;;
27857;SDS011;16852;51.446;6.528;2023-07-29T15:57:50;0.90;;;0.63;;
27857;SDS011;16852;51.446;6.528;2023-07-29T15:59:51;0.73;;;0.70;;
27857;SDS011;16852;51.446;6.528;2023-07-29T16:01:51;1.23;;;1.05;;
27857;SDS011;16852;51.446;6.528;2023-07-29T16:03:52;0.77;;;0.70;;
27857;SDS011;16852;51.446;6.528;2023-07-29T16:05:52;1.08;;;0.90;;
27857;SDS011;16852;51.446;6.528;2023-07-29T16:07:53;1.48;;;1.05;;
27857;SDS011;16852;51.446;6.528;2023-07-29T16:11:56;1.60;;;1.00;;
27857;SDS011;16852;51.446;6.528;2023-07-29T16:13:57;1.17;;;1.00;;
27857;SDS011;16852;51.446;6.528;2023-07-29T16:15:57;1.00;;;0.93;;
27857;SDS011;16852;51.446;6.528;2023-07-29T16:17:59;0.77;;;0.77;;
27857;SDS011;16852;51.446;6.528;2023-07-29T16:20:00;1.17;;;0.85;;
27857;SDS011;16852;51.446;6.528;2023-07-29T16:22:03;1.20;;;1.10;;
27857;SDS011;16852;51.446;6.528;2023-07-29T16:24:04;1.05;;;0.95;;
27857;SDS011;16852;51.446;6.528;2023-07-29T16:26:04;1.63;;;1.00;;
27857;SDS011;16852;51.446;6.528;2023-07-29T16:28:05;1.00;;;0.90;;
27857;SDS011;16852;51.446;6.528;2023-07-29T16:30:05;1.65;;;1.00;;
27857;SDS011;16852;51.446;6.528;2023-07-29T16:32:07;1.50;;;1.17;;
27857;SDS011;16852;51.446;6.528;2023-07-29T16:34:08;1.75;;;1.17;;
27857;SDS011;16852;51.446;6.528;2023-07-29T16:36:08;0.95;;;0.85;;
27857;SDS011;16852;51.446;6.528;2023-07-29T16:38:09;2.28;;;1.02;;
27857;SDS011;16852;51.446;6.528;2023-07-29T16:40:10;1.25;;;1.08;;
27857;SDS011;16852;51.446;6.528;2023-07-29T16:42:11;1.35;;;0.98;;
27857;SDS011;16852;51.446;6.528;2023-07-29T16:44:11;1.17;;;1.08;;
27857;SDS011;16852;51.446;6.528;2023-07-29T16:46:12;1.48;;;1.00;;
27857;SDS011;16852;51.446;6.528;2023-07-29T16:48:12;1.10;;;0.93;;
27857;SDS011;16852;51.446;6.528;2023-07-29T16:50:13;0.68;;;0.68;;
27857;SDS011;16852;51.446;6.528;2023-07-29T16:52:14;1.00;;;1.00;;
27857;SDS011;16852;51.446;6.528;2023-07-29T16:54:15;1.90;;;0.80;;
27857;SDS011;16852;51.446;6.528;2023-07-29T16:58:18;1.17;;;1.08;;
27857;SDS011;16852;51.446;6.528;2023-07-29T17:00:18;3.38;;;1.20;;
27857;SDS011;16852;51.446;6.528;2023-07-29T17:02:19;1.52;;;1.20;;
27857;SDS011;16852;51.446;6.528;2023-07-29T17:04:20;2.25;;;1.17;;
27857;SDS011;16852;51.446;6.528;2023-07-29T17:06:20;3.75;;;1.30;;
27857;SDS011;16852;51.446;6.528;2023-07-29T17:08:21;2.92;;;1.50;;
27857;SDS011;16852;51.446;6.528;2023-07-29T17:10:21;4.55;;;1.40;;
27857;SDS011;16852;51.446;6.528;2023-07-29T17:12:22;6.47;;;1.30;;
27857;SDS011;16852;51.446;6.528;2023-07-29T17:14:22;4.00;;;1.40;;
27857;SDS011;16852;51.446;6.528;2023-07-29T17:16:23;0.98;;;0.32;;
27857;SDS011;16852;51.446;6.528;2023-07-29T17:18:23;0.47;;;0.40;;
27857;SDS011;16852;51.446;6.528;2023-07-29T17:20:24;0.30;;;0.25;;
27857;SDS011;16852;51.446;6.528;2023-07-29T17:22:25;0.35;;;0.17;;
27857;SDS011;16852;51.446;6.528;2023-07-29T17:24:25;0.45;;;0.30;;
27857;SDS011;16852;51.446;6.528;2023-07-29T17:26:27;0.82;;;0.30;;
27857;SDS011;16852;51.446;6.528;2023-07-29T17:28:28;0.57;;;0.30;;
27857;SDS011;16852;51.446;6.528;2023-07-29T17:30:29;0.20;;;0.20;;
27857;SDS011;16852;51.446;6.528;2023-07-29T17:32:31;0.28;;;0.28;;
27857;SDS011;16852;51.446;6.528;2023-07-29T17:34:31;0.30;;;0.22;;
27857;SDS011;16852;51.446;6.528;2023-07-29T17:36:32;3.08;;;0.50;;
27857;SDS011;16852;51.446;6.528;2023-07-29T17:38:32;0.50;;;0.40;;
27857;SDS011;16852;51.446;6.528;2023-07-29T17:40:33;1.38;;;0.50;;
27857;SDS011;16852;51.446;6.528;2023-07-29T17:42:33;1.08;;;0.50;;
27857;SDS011;16852;51.446;6.528;2023-07-29T17:44:34;1.33;;;0.38;;
27857;SDS011;16852;51.446;6.528;2023-07-29T17:46:35;1.05;;;0.50;;
27857;SDS011;16852;51.446;6.528;2023-07-29T17:48:36;0.50;;;0.40;;
27857;SDS011;16852;51.446;6.528;2023-07-29T17:50:36;1.42;;;0.70;;
27857;SDS011;16852;51.446;6.528;2023-07-29T17:52:37;1.10;;;0.50;;
27857;SDS011;16852;51.446;6.528;2023-07-29T17:54:37;1.17;;;0.40;;
27857;SDS011;16852;51.446;6.528;2023-07-29T17:56:39;1.33;;;0.50;;
27857;SDS011;16852;51.446;6.528;2023-07-29T17:58:39;1.52;;;0.60;;
27857;SDS011;16852;51.446;6.528;2023-07-29T18:00:40;3.50;;;0.65;;
27857;SDS011;16852;51.446;6.528;2023-07-29T18:02:41;0.77;;;0.35;;
27857;SDS011;16852;51.446;6.528;2023-07-29T18:04:41;0.40;;;0.40;;
27857;SDS011;16852;51.446;6.528;2023-07-29T18:06:42;0.40;;;0.40;;
27857;SDS011;16852;51.446;6.528;2023-07-29T18:08:43;1.20;;;0.63;;
27857;SDS011;16852;51.446;6.528;2023-07-29T18:10:43;0.40;;;0.40;;
27857;SDS011;16852;51.446;6.528;2023-07-29T18:12:44;0.80;;;0.50;;
27857;SDS011;16852;51.446;6.528;2023-07-29T18:14:45;1.40;;;0.60;;
27857;SDS011;16852;51.446;6.528;2023-07-29T18:16:45;0.82;;;0.50;;
27857;SDS011;16852;51.446;6.528;2023-07-29T18:18:46;1.05;;;0.80;;
27857;SDS011;16852;51.446;6.528;2023-07-29T18:20:49;2.22;;;0.85;;
27857;SDS011;16852;51.446;6.528;2023-07-29T18:22:50;0.85;;;0.40;;
27857;SDS011;16852;51.446;6.528;2023-07-29T18:24:51;0.40;;;0.40;;
27857;SDS011;16852;51.446;6.528;2023-07-29T18:26:52;0.80;;;0.50;;
27857;SDS011;16852;51.446;6.528;2023-07-29T18:28:52;0.60;;;0.47;;
27857;SDS011;16852;51.446;6.528;2023-07-29T18:30:53;1.02;;;0.50;;
27857;SDS011;16852;51.446;6.528;2023-07-29T18:32:53;0.80;;;0.65;;
27857;SDS011;16852;51.446;6.528;2023-07-29T18:34:54;1.23;;;0.73;;
27857;SDS011;16852;51.446;6.528;2023-07-29T18:36:54;0.82;;;0.60;;
27857;SDS011;16852;51.446;6.528;2023-07-29T18:38:55;0.95;;;0.65;;
27857;SDS011;16852;51.446;6.528;2023-07-29T18:40:56;1.17;;;0.73;;
27857;SDS011;16852;51.446;6.528;2023-07-29T18:42:56;1.15;;;0.77;;
27857;SDS011;16852;51.446;6.528;2023-07-29T18:44:57;1.25;;;0.90;;
27857;SDS011;16852;51.446;6.528;2023-07-29T18:46:58;1.15;;;0.75;;
27857;SDS011;16852;51.446;6.528;2023-07-29T18:48:58;1.23;;;1.02;;
27857;SDS011;16852;51.446;6.528;2023-07-29T18:50:59;2.17;;;1.00;;
27857;SDS011;16852;51.446;6.528;2023-07-29T18:53:00;1.30;;;1.00;;
27857;SDS011;16852;51.446;6.528;2023-07-29T18:55:01;1.15;;;0.90;;
27857;SDS011;16852;51.446;6.528;2023-07-29T18:57:01;1.23;;;0.80;;
27857;SDS011;16852;51.446;6.528;2023-07-29T18:59:02;1.90;;;1.17;;
27857;SDS011;16852;51.446;6.528;2023-07-29T19:01:03;1.38;;;1.02;;
27857;SDS011;16852;51.446;6.528;2023-07-29T19:03:04;1.65;;;1.08;;
27857;SDS011;16852;51.446;6.528;2023-07-29T19:05:04;2.03;;;1.23;;
27857;SDS011;16852;51.446;6.528;2023-07-29T19:07:08;1.27;;;1.00;;
27857;SDS011;16852;51.446;6.528;2023-07-29T19:09:08;1.17;;;1.08;;
27857;SDS011;16852;51.446;6.528;2023-07-29T19:11:10;2.08;;;1.33;;
27857;SDS011;16852;51.446;6.528;2023-07-29T19:13:10;1.10;;;1.00;;
27857;SDS011;16852;51.446;6.528;2023-07-29T19:15:11;2.08;;;1.02;;
27857;SDS011;16852;51.446;6.528;2023-07-29T19:17:12;1.45;;;1.10;;
27857;SDS011;16852;51.446;6.528;2023-07-29T19:19:12;0.95;;;0.88;;
27857;SDS011;16852;51.446;6.528;2023-07-29T19:21:14;1.42;;;1.10;;
27857;SDS011;16852;51.446;6.528;2023-07-29T19:23:16;1.33;;;1.08;;
27857;SDS011;16852;51.446;6.528;2023-07-29T19:25:16;1.15;;;1.05;;
27857;SDS011;16852;51.446;6.528;2023-07-29T19:27:17;2.10;;;0.82;;
27857;SDS011;16852;51.446;6.528;2023-07-29T19:29:17;1.20;;;1.10;;
27857;SDS011;16852;51.446;6.528;2023-07-29T19:31:18;0.90;;;0.90;;
27857;SDS011;16852;51.446;6.528;2023-07-29T19:33:19;1.55;;;0.98;;
27857;SDS011;16852;51.446;6.528;2023-07-29T19:35:20;1.95;;;1.05;;
27857;SDS011;16852;51.446;6.528;2023-07-29T19:37:21;1.60;;;1.10;;
27857;SDS011;16852;51.446;6.528;2023-07-29T19:39:25;1.20;;;0.98;;
27857;SDS011;16852;51.446;6.528;2023-07-29T19:41:25;1.42;;;1.20;;
27857;SDS011;16852;51.446;6.528;2023-07-29T19:43:27;1.73;;;1.30;;
27857;SDS011;16852;51.446;6.528;2023-07-29T19:47:30;1.20;;;0.85;;
27857;SDS011;16852;51.446;6.528;2023-07-29T19:49:31;1.20;;;1.10;;
27857;SDS011;16852;51.446;6.528;2023-07-29T19:51:32;2.95;;;1.17;;
27857;SDS011;16852;51.446;6.528;2023-07-29T19:53:33;1.65;;;1.02;;
27857;SDS011;16852;51.446;6.528;2023-07-29T19:55:34;1.40;;;1.10;;
27857;SDS011;16852;51.446;6.528;2023-07-29T19:57:35;0.98;;;0.93;;
27857;SDS011;16852;51.446;6.528;2023-07-29T19:59:35;1.40;;;1.00;;
27857;SDS011;16852;51.446;6.528;2023-07-29T20:01:36;1.00;;;0.90;;
27857;SDS011;16852;51.446;6.528;2023-07-29T20:03:37;1.20;;;1.10;;
27857;SDS011;16852;51.446;6.528;2023-07-29T20:05:39;1.10;;;1.00;;
27857;SDS011;16852;51.446;6.528;2023-07-29T20:07:41;1.25;;;1.15;;
27857;SDS011;16852;51.446;6.528;2023-07-29T20:09:41;1.40;;;1.10;;
27857;SDS011;16852;51.446;6.528;2023-07-29T20:11:42;1.15;;;1.05;;
27857;SDS011;16852;51.446;6.528;2023-07-29T20:13:42;1.20;;;1.10;;
27857;SDS011;16852;51.446;6.528;2023-07-29T20:15:43;0.98;;;0.93;;
27857;SDS011;16852;51.446;6.528;2023-07-29T20:17:44;1.00;;;0.95;;
27857;SDS011;16852;51.446;6.528;2023-07-29T20:19:45;1.58;;;1.20;;
27857;SDS011;16852;51.446;6.528;2023-07-29T20:21:45;1.00;;;0.90;;
27857;SDS011;16852;51.446;6.528;2023-07-29T20:23:46;0.75;;;0.75;;
27857;SDS011;16852;51.446;6.528;2023-07-29T20:25:48;0.95;;;0.90;;
27857;SDS011;16852;51.446;6.528;2023-07-29T20:27:50;1.33;;;1.05;;
27857;SDS011;16852;51.446;6.528;2023-07-29T20:29:50;1.35;;;1.17;;
27857;SDS011;16852;51.446;6.528;2023-07-29T20:31:51;1.20;;;1.10;;
27857;SDS011;16852;51.446;6.528;2023-07-29T20:33:51;1.77;;;0.98;;
27857;SDS011;16852;51.446;6.528;2023-07-29T20:35:55;2.13;;;1.30;;
27857;SDS011;16852;51.446;6.528;2023-07-29T20:37:57;1.70;;;0.90;;
27857;SDS011;16852;51.446;6.528;2023-07-29T20:39:58;1.30;;;1.20;;
27857;SDS011;16852;51.446;6.528;2023-07-29T20:41:59;2.10;;;1.27;;
27857;SDS011;16852;51.446;6.528;2023-07-29T20:43:59;1.33;;;1.05;;
27857;SDS011;16852;51.446;6.528;2023-07-29T20:46:00;1.30;;;1.20;;
27857;SDS011;16852;51.446;6.528;2023-07-29T20:48:00;3.35;;;1.23;;
27857;SDS011;16852;51.446;6.528;2023-07-29T20:50:01;2.92;;;1.30;;
27857;SDS011;16852;51.446;6.528;2023-07-29T20:52:03;1.77;;;1.10;;
27857;SDS011;16852;51.446;6.528;2023-07-29T20:54:04;1.70;;;1.50;;
27857;SDS011;16852;51.446;6.528;2023-07-29T20:56:05;1.48;;;1.20;;
27857;SDS011;16852;51.446;6.528;2023-07-29T20:58:05;1.30;;;1.20;;
27857;SDS011;16852;51.446;6.528;2023-07-29T21:00:06;1.90;;;1.40;;
27857;SDS011;16852;51.446;6.528;2023-07-29T21:02:10;1.83;;;1.17;;
27857;SDS011;16852;51.446;6.528;2023-07-29T21:04:10;1.73;;;1.15;;
27857;SDS011;16852;51.446;6.528;2023-07-29T21:06:11;2.53;;;1.60;;
27857;SDS011;16852;51.446;6.528;2023-07-29T21:08:12;1.25;;;1.13;;
27857;SDS011;16852;51.446;6.528;2023-07-29T21:10:13;1.70;;;1.60;;
27857;SDS011;16852;51.446;6.528;2023-07-29T21:12:13;1.73;;;1.17;;
27857;SDS011;16852;51.446;6.528;2023-07-29T21:14:15;1.77;;;1.30;;
27857;SDS011;16852;51.446;6.528;2023-07-29T21:16:16;2.10;;;1.42;;
27857;SDS011;16852;51.446;6.528;2023-07-29T21:18:20;1.55;;;1.20;;
27857;SDS011;16852;51.446;6.528;2023-07-29T21:20:22;1.67;;;1.30;;
27857;SDS011;16852;51.446;6.528;2023-07-29T21:22:22;2.03;;;1.55;;
27857;SDS011;16852;51.446;6.528;2023-07-29T21:24:23;2.47;;;1.10;;
27857;SDS011;16852;51.446;6.528;2023-07-29T21:26:23;1.33;;;1.23;;
27857;SDS011;16852;51.446;6.528;2023-07-29T21:28:24;1.35;;;1.20;;
27857;SDS011;16852;51.446;6.528;2023-07-29T21:30:25;1.50;;;1.40;;
27857;SDS011;16852;51.446;6.528;2023-07-29T21:32:26;1.70;;;1.30;;
27857;SDS011;16852;51.446;6.528;2023-07-29T21:34:26;1.70;;;1.40;;
27857;SDS011;16852;51.446;6.528;2023-07-29T21:36:27;2.78;;;1.30;;
27857;SDS011;16852;51.446;6.528;2023-07-29T21:38:28;1.95;;;1.20;;
27857;SDS011;16852;51.446;6.528;2023-07-29T21:40:28;2.42;;;1.40;;
27857;SDS011;16852;51.446;6.528;2023-07-29T21:42:29;1.67;;;1.17;;
27857;SDS011;16852;51.446;6.528;2023-07-29T21:44:29;1.90;;;1.27;;
27857;SDS011;16852;51.446;6.528;2023-07-29T21:46:30;2.97;;;1.40;;
27857;SDS011;16852;51.446;6.528;2023-07-29T21:48:32;3.05;;;1.63;;
27857;SDS011;16852;51.446;6.528;2023-07-29T21:50:32;2.92;;;1.30;;
27857;SDS011;16852;51.446;6.528;2023-07-29T21:52:33;1.95;;;1.20;;
27857;SDS011;16852;51.446;6.528;2023-07-29T21:54:34;1.65;;;1.35;;
27857;SDS011;16852;51.446;6.528;2023-07-29T21:56:34;2.95;;;1.55;;
27857;SDS011;16852;51.446;6.528;2023-07-29T21:58:35;1.83;;;1.27;;
27857;SDS011;16852;51.446;6.528;2023-07-29T22:00:36;2.80;;;1.52;;
27857;SDS011;16852;51.446;6.528;2023-07-29T22:02:36;1.77;;;1.20;;
27857;SDS011;16852;51.446;6.528;2023-07-29T22:04:37;1.58;;;1.38;;
27857;SDS011;16852;51.446;6.528;2023-07-29T22:06:38;1.50;;;1.20;;
27857;SDS011;16852;51.446;6.528;2023-07-29T22:08:39;2.28;;;1.42;;
27857;SDS011;16852;51.446;6.528;2023-07-29T22:10:39;3.10;;;1.45;;
27857;SDS011;16852;51.446;6.528;2023-07-29T22:12:40;2.80;;;1.48;;
27857;SDS011;16852;51.446;6.528;2023-07-29T22:14:43;1.65;;;1.30;;
27857;SDS011;16852;51.446;6.528;2023-07-29T22:16:45;2.13;;;1.40;;
27857;SDS011;16852;51.446;6.528;2023-07-29T22:18:49;1.85;;;1.30;;
27857;SDS011;16852;51.446;6.528;2023-07-29T22:20:53;2.60;;;1.30;;
27857;SDS011;16852;51.446;6.528;2023-07-29T22:22:58;4.57;;;1.88;;
27857;SDS011;16852;51.446;6.528;2023-07-29T22:24:59;2.28;;;1.50;;
27857;SDS011;16852;51.446;6.528;2023-07-29T22:26:59;1.88;;;1.40;;
27857;SDS011;16852;51.446;6.528;2023-07-29T22:29:00;1.45;;;1.30;;
27857;SDS011;16852;51.446;6.528;2023-07-29T22:31:01;1.83;;;1.30;;
27857;SDS011;16852;51.446;6.528;2023-07-29T22:33:05;2.42;;;1.38;;
27857;SDS011;16852;51.446;6.528;2023-07-29T22:35:05;5.30;;;1.45;;
27857;SDS011;16852;51.446;6.528;2023-07-29T22:37:06;3.15;;;1.83;;
27857;SDS011;16852;51.446;6.528;2023-07-29T22:39:07;3.75;;;1.48;;
27857;SDS011;16852;51.446;6.528;2023-07-29T22:41:07;2.08;;;1.48;;
27857;SDS011;16852;51.446;6.528;2023-07-29T22:43:08;1.45;;;1.20;;
27857;SDS011;16852;51.446;6.528;2023-07-29T22:45:09;2.80;;;1.58;;
27857;SDS011;16852;51.446;6.528;2023-07-29T22:47:10;4.88;;;1.50;;
27857;SDS011;16852;51.446;6.528;2023-07-29T22:49:10;2.60;;;1.35;;
27857;SDS011;16852;51.446;6.528;2023-07-29T22:51:11;3.95;;;1.60;;
27857;SDS011;16852;51.446;6.528;2023-07-29T22:53:11;3.97;;;1.60;;
27857;SDS011;16852;51.446;6.528;2023-07-29T22:55:13;2.35;;;1.75;;
27857;SDS011;16852;51.446;6.528;2023-07-29T22:57:13;2.10;;;1.50;;
27857;SDS011;16852;51.446;6.528;2023-07-29T22:59:14;2.55;;;1.48;;